sensor_id;sensor_type;location;lat;lon;timestamp;pressure;altitude;pressure_sealevel;temperature;humidity
788;BME280;16074;42.708;23.312;2023-05-17T00:01:49;142174.31;;;15.98;100.00
788;BME280;16074;42.708;23.312;2023-05-17T00:04:18;142170.72;;;15.97;100.00
788;BME280;16074;42.708;23.312;2023-05-17T00:06:46;142144.09;;;15.86;100.00
788;BME280;16074;42.708;23.312;2023-05-17T00:09:14;142150.13;;;15.88;100.00
788;BME280;16074;42.708;23.312;2023-05-17T00:11:43;142150.13;;;15.88;100.00
788;BME280;16074;42.708;23.312;2023-05-17T00:14:11;142116.28;;;15.74;100.00
788;BME280;16074;42.708;23.312;2023-05-17T00:16:41;142115.03;;;15.74;100.00
788;BME280;16074;42.708;23.312;2023-05-17T00:19:09;142111.44;;;15.72;100.00
788;BME280;16074;42.708;23.312;2023-05-17T00:21:38;142106.59;;;15.70;100.00
788;BME280;16074;42.708;23.312;2023-05-17T00:24:06;142095.69;;;15.66;100.00
788;BME280;16074;42.708;23.312;2023-05-17T00:26:35;142081.16;;;15.60;100.00
788;BME280;16074;42.708;23.312;2023-05-17T00:29:03;142063.03;;;15.52;100.00
788;BME280;16074;42.708;23.312;2023-05-17T00:31:32;142040.06;;;15.43;100.00
788;BME280;16074;42.708;23.312;2023-05-17T00:34:01;142065.44;;;15.53;100.00
788;BME280;16074;42.708;23.312;2023-05-17T00:36:30;142071.53;;;15.56;100.00
788;BME280;16074;42.708;23.312;2023-05-17T00:38:59;142064.25;;;15.53;100.00
788;BME280;16074;42.708;23.312;2023-05-17T00:41:28;142064.25;;;15.53;100.00
788;BME280;16074;42.708;23.312;2023-05-17T00:43:56;142043.66;;;15.45;100.00
788;BME280;16074;42.708;23.312;2023-05-17T00:46:24;142049.75;;;15.47;100.00
788;BME280;16074;42.708;23.312;2023-05-17T00:48:53;141991.63;;;15.23;100.00
788;BME280;16074;42.708;23.312;2023-05-17T00:51:23;141904.59;;;14.87;100.00
788;BME280;16074;42.708;23.312;2023-05-17T00:53:51;141875.56;;;14.75;100.00
788;BME280;16074;42.708;23.312;2023-05-17T00:56:20;141884.00;;;14.79;100.00
788;BME280;16074;42.708;23.312;2023-05-17T00:58:48;141871.91;;;14.74;100.00
788;BME280;16074;42.708;23.312;2023-05-17T01:01:17;141885.25;;;14.79;100.00
788;BME280;16074;42.708;23.312;2023-05-17T01:03:45;141917.88;;;14.93;100.00
788;BME280;16074;42.708;23.312;2023-05-17T01:06:14;141916.69;;;14.92;100.00
788;BME280;16074;42.708;23.312;2023-05-17T01:08:43;141911.84;;;14.90;100.00
788;BME280;16074;42.708;23.312;2023-05-17T01:11:17;141909.44;;;14.89;100.00
788;BME280;16074;42.708;23.312;2023-05-17T01:13:56;141922.69;;;14.95;100.00
788;BME280;16074;42.708;23.312;2023-05-17T01:16:31;141931.19;;;14.98;100.00
788;BME280;16074;42.708;23.312;2023-05-17T01:19:07;141886.44;;;14.80;100.00
788;BME280;16074;42.708;23.312;2023-05-17T01:21:55;141884.00;;;14.79;100.00
788;BME280;16074;42.708;23.312;2023-05-17T01:24:29;141865.88;;;14.71;100.00
788;BME280;16074;42.708;23.312;2023-05-17T01:27:03;141815.13;;;14.50;100.00
788;BME280;16074;42.708;23.312;2023-05-17T01:29:34;141778.91;;;14.35;100.00
788;BME280;16074;42.708;23.312;2023-05-17T01:32:05;141775.25;;;14.34;100.00
788;BME280;16074;42.708;23.312;2023-05-17T01:34:34;141784.91;;;14.38;100.00
788;BME280;16074;42.708;23.312;2023-05-17T01:37:03;141784.91;;;14.38;100.00
788;BME280;16074;42.708;23.312;2023-05-17T01:39:31;141822.38;;;14.53;100.00
788;BME280;16074;42.708;23.312;2023-05-17T01:42:07;141846.53;;;14.63;100.00
788;BME280;16074;42.708;23.312;2023-05-17T01:44:42;141850.19;;;14.65;100.00
788;BME280;16074;42.708;23.312;2023-05-17T01:47:20;141859.88;;;14.69;100.00
788;BME280;16074;42.708;23.312;2023-05-17T01:49:53;141841.72;;;14.61;100.00
788;BME280;16074;42.708;23.312;2023-05-17T01:52:27;141760.75;;;14.28;100.00
788;BME280;16074;42.708;23.312;2023-05-17T01:55:04;141714.81;;;14.09;100.00
788;BME280;16074;42.708;23.312;2023-05-17T01:57:35;141720.84;;;14.12;100.00
788;BME280;16074;42.708;23.312;2023-05-17T02:00:05;141764.38;;;14.30;100.00
788;BME280;16074;42.708;23.312;2023-05-17T02:02:41;141780.09;;;14.36;100.00
788;BME280;16074;42.708;23.312;2023-05-17T02:05:11;141793.41;;;14.41;100.00
788;BME280;16074;42.708;23.312;2023-05-17T02:07:39;141804.25;;;14.46;100.00
788;BME280;16074;42.708;23.312;2023-05-17T02:10:08;141795.81;;;14.42;100.00
788;BME280;16074;42.708;23.312;2023-05-17T02:12:41;141790.97;;;14.40;100.00
788;BME280;16074;42.708;23.312;2023-05-17T02:15:10;141782.50;;;14.37;100.00
788;BME280;16074;42.708;23.312;2023-05-17T02:17:39;141786.16;;;14.38;100.00
788;BME280;16074;42.708;23.312;2023-05-17T02:20:08;141790.97;;;14.40;100.00
788;BME280;16074;42.708;23.312;2023-05-17T02:22:37;141747.47;;;14.23;100.00
788;BME280;16074;42.708;23.312;2023-05-17T02:25:07;141671.31;;;13.91;100.00
788;BME280;16074;42.708;23.312;2023-05-17T02:27:35;141682.16;;;13.96;100.00
788;BME280;16074;42.708;23.312;2023-05-17T02:30:06;141699.09;;;14.03;100.00
788;BME280;16074;42.708;23.312;2023-05-17T02:32:35;141711.16;;;14.08;100.00
788;BME280;16074;42.708;23.312;2023-05-17T02:35:06;141716.00;;;14.10;100.00
788;BME280;16074;42.708;23.312;2023-05-17T02:37:35;141708.75;;;14.07;100.00
788;BME280;16074;42.708;23.312;2023-05-17T02:40:05;141709.97;;;14.07;100.00
788;BME280;16074;42.708;23.312;2023-05-17T02:42:35;141705.16;;;14.05;100.00
788;BME280;16074;42.708;23.312;2023-05-17T02:45:06;141680.97;;;13.95;100.00
788;BME280;16074;42.708;23.312;2023-05-17T02:47:35;141693.06;;;14.00;100.00
788;BME280;16074;42.708;23.312;2023-05-17T02:50:04;141687.00;;;13.98;100.00
788;BME280;16074;42.708;23.312;2023-05-17T02:52:33;141679.75;;;13.95;100.00
788;BME280;16074;42.708;23.312;2023-05-17T02:55:02;141671.31;;;13.91;100.00
788;BME280;16074;42.708;23.312;2023-05-17T02:57:30;141671.31;;;13.91;100.00
788;BME280;16074;42.708;23.312;2023-05-17T02:59:59;141665.25;;;13.89;100.00
788;BME280;16074;42.708;23.312;2023-05-17T03:02:29;141642.31;;;13.79;100.00
788;BME280;16074;42.708;23.312;2023-05-17T03:04:58;141631.47;;;13.75;100.00
788;BME280;16074;42.708;23.312;2023-05-17T03:07:27;141603.66;;;13.63;100.00
788;BME280;16074;42.708;23.312;2023-05-17T03:09:55;141609.72;;;13.66;100.00
788;BME280;16074;42.708;23.312;2023-05-17T03:12:26;141591.63;;;13.58;100.00
788;BME280;16074;42.708;23.312;2023-05-17T03:14:56;141603.66;;;13.63;100.00
788;BME280;16074;42.708;23.312;2023-05-17T03:17:24;141591.63;;;13.58;100.00
788;BME280;16074;42.708;23.312;2023-05-17T03:19:54;141594.03;;;13.59;100.00
788;BME280;16074;42.708;23.312;2023-05-17T03:22:24;141588.00;;;13.57;100.00
788;BME280;16074;42.708;23.312;2023-05-17T03:24:54;141569.88;;;13.49;100.00
788;BME280;16074;42.708;23.312;2023-05-17T03:27:22;141580.75;;;13.54;100.00
788;BME280;16074;42.708;23.312;2023-05-17T03:29:51;141596.41;;;13.60;100.00
788;BME280;16074;42.708;23.312;2023-05-17T03:32:21;141588.00;;;13.57;100.00
788;BME280;16074;42.708;23.312;2023-05-17T03:34:50;141556.59;;;13.44;100.00
788;BME280;16074;42.708;23.312;2023-05-17T03:37:20;141594.03;;;13.59;100.00
788;BME280;16074;42.708;23.312;2023-05-17T03:39:49;141609.72;;;13.66;100.00
788;BME280;16074;42.708;23.312;2023-05-17T03:42:17;141629.06;;;13.74;100.00
788;BME280;16074;42.708;23.312;2023-05-17T03:44:46;141636.31;;;13.77;100.00
788;BME280;16074;42.708;23.312;2023-05-17T03:47:15;141642.31;;;13.79;100.00
788;BME280;16074;42.708;23.312;2023-05-17T03:49:43;141637.47;;;13.77;100.00
788;BME280;16074;42.708;23.312;2023-05-17T03:52:12;141629.06;;;13.74;100.00
788;BME280;16074;42.708;23.312;2023-05-17T03:54:42;141631.47;;;13.75;100.00
788;BME280;16074;42.708;23.312;2023-05-17T03:57:13;141660.47;;;13.87;100.00
788;BME280;16074;42.708;23.312;2023-05-17T03:59:42;141670.09;;;13.91;100.00
788;BME280;16074;42.708;23.312;2023-05-17T04:02:10;141650.81;;;13.83;100.00
788;BME280;16074;42.708;23.312;2023-05-17T04:04:38;141668.91;;;13.90;100.00
788;BME280;16074;42.708;23.312;2023-05-17T04:07:07;141687.00;;;13.98;100.00
788;BME280;16074;42.708;23.312;2023-05-17T04:09:35;141694.25;;;14.01;100.00
788;BME280;16074;42.708;23.312;2023-05-17T04:12:05;141684.59;;;13.97;100.00
788;BME280;16074;42.708;23.312;2023-05-17T04:14:35;141677.34;;;13.94;100.00
788;BME280;16074;42.708;23.312;2023-05-17T04:17:03;141682.16;;;13.96;100.00
788;BME280;16074;42.708;23.312;2023-05-17T04:19:32;141711.16;;;14.08;100.00
788;BME280;16074;42.708;23.312;2023-05-17T04:22:01;141725.72;;;14.14;100.00
788;BME280;16074;42.708;23.312;2023-05-17T04:24:29;141735.38;;;14.18;100.00
788;BME280;16074;42.708;23.312;2023-05-17T04:26:58;141737.81;;;14.19;100.00
788;BME280;16074;42.708;23.312;2023-05-17T04:29:30;141747.47;;;14.23;100.00
788;BME280;16074;42.708;23.312;2023-05-17T04:31:59;141732.97;;;14.17;100.00
788;BME280;16074;42.708;23.312;2023-05-17T04:34:28;141742.63;;;14.21;100.00
788;BME280;16074;42.708;23.312;2023-05-17T04:36:59;141748.66;;;14.23;100.00
788;BME280;16074;42.708;23.312;2023-05-17T04:39:27;141781.31;;;14.36;100.00
788;BME280;16074;42.708;23.312;2023-05-17T04:41:57;141752.31;;;14.25;100.00
788;BME280;16074;42.708;23.312;2023-05-17T04:44:26;141763.16;;;14.29;100.00
788;BME280;16074;42.708;23.312;2023-05-17T04:46:56;141774.06;;;14.33;100.00
788;BME280;16074;42.708;23.312;2023-05-17T04:49:25;141812.69;;;14.49;100.00
788;BME280;16074;42.708;23.312;2023-05-17T04:51:55;141813.94;;;14.50;100.00
788;BME280;16074;42.708;23.312;2023-05-17T04:54:24;141844.13;;;14.62;100.00
788;BME280;16074;42.708;23.312;2023-05-17T04:56:53;141847.78;;;14.64;100.00
788;BME280;16074;42.708;23.312;2023-05-17T04:59:41;141886.44;;;14.80;100.00
788;BME280;16074;42.708;23.312;2023-05-17T05:02:11;141897.34;;;14.84;100.00
788;BME280;16074;42.708;23.312;2023-05-17T05:04:40;141919.09;;;14.93;100.00
788;BME280;16074;42.708;23.312;2023-05-17T05:07:10;141913.03;;;14.91;100.00
788;BME280;16074;42.708;23.312;2023-05-17T05:09:39;141929.97;;;14.98;100.00
788;BME280;16074;42.708;23.312;2023-05-17T05:12:09;141957.75;;;15.09;100.00
788;BME280;16074;42.708;23.312;2023-05-17T05:14:38;141992.84;;;15.24;100.00
788;BME280;16074;42.708;23.312;2023-05-17T05:17:07;142011.03;;;15.31;100.00
788;BME280;16074;42.708;23.312;2023-05-17T05:19:36;142019.47;;;15.35;100.00
788;BME280;16074;42.708;23.312;2023-05-17T05:22:06;142034.00;;;15.41;100.00
788;BME280;16074;42.708;23.312;2023-05-17T05:24:36;142052.16;;;15.48;100.00
788;BME280;16074;42.708;23.312;2023-05-17T05:27:05;142061.84;;;15.52;100.00
788;BME280;16074;42.708;23.312;2023-05-17T05:29:35;142090.84;;;15.64;100.00
788;BME280;16074;42.708;23.312;2023-05-17T05:32:05;142093.25;;;15.65;100.00
788;BME280;16074;42.708;23.312;2023-05-17T05:34:40;142106.59;;;15.70;100.00
788;BME280;16074;42.708;23.312;2023-05-17T05:37:08;142158.63;;;15.92;100.00
788;BME280;16074;42.708;23.312;2023-05-17T05:39:37;142173.13;;;15.98;100.00
788;BME280;16074;42.708;23.312;2023-05-17T05:42:06;142198.53;;;16.08;100.00
788;BME280;16074;42.708;23.312;2023-05-17T05:44:35;142242.13;;;16.26;100.00
788;BME280;16074;42.708;23.312;2023-05-17T05:47:03;142262.72;;;16.35;100.00
788;BME280;16074;42.708;23.312;2023-05-17T05:49:32;142274.84;;;16.40;100.00
788;BME280;16074;42.708;23.312;2023-05-17T05:52:02;142283.28;;;16.43;100.00
788;BME280;16074;42.708;23.312;2023-05-17T05:54:31;142302.66;;;16.51;100.00
788;BME280;16074;42.708;23.312;2023-05-17T05:56:59;142322.06;;;16.59;100.00
788;BME280;16074;42.708;23.312;2023-05-17T05:59:27;142339.00;;;16.66;100.00
788;BME280;16074;42.708;23.312;2023-05-17T06:01:57;142346.28;;;16.69;100.00
788;BME280;16074;42.708;23.312;2023-05-17T06:04:25;142406.84;;;16.94;100.00
788;BME280;16074;42.708;23.312;2023-05-17T06:07:11;142408.03;;;16.94;100.00
788;BME280;16074;42.708;23.312;2023-05-17T06:09:40;142414.13;;;16.97;100.00
788;BME280;16074;42.708;23.312;2023-05-17T06:12:09;142441.97;;;17.08;100.00
788;BME280;16074;42.708;23.312;2023-05-17T06:14:37;142485.59;;;17.26;100.00
788;BME280;16074;42.708;23.312;2023-05-17T06:17:05;142518.31;;;17.40;100.00
788;BME280;16074;42.708;23.312;2023-05-17T06:19:34;142540.16;;;17.49;100.00
788;BME280;16074;42.708;23.312;2023-05-17T06:22:03;142558.31;;;17.56;100.00
788;BME280;16074;42.708;23.312;2023-05-17T06:24:33;142578.88;;;17.65;100.00
788;BME280;16074;42.708;23.312;2023-05-17T06:27:01;142599.53;;;17.73;100.00
788;BME280;16074;42.708;23.312;2023-05-17T06:29:29;142610.41;;;17.78;100.00
788;BME280;16074;42.708;23.312;2023-05-17T06:31:57;142634.66;;;17.88;100.00
788;BME280;16074;42.708;23.312;2023-05-17T06:34:26;142656.50;;;17.97;100.00
788;BME280;16074;42.708;23.312;2023-05-17T06:36:55;142660.09;;;17.98;100.00
788;BME280;16074;42.708;23.312;2023-05-17T06:39:23;142684.34;;;18.08;100.00
788;BME280;16074;42.708;23.312;2023-05-17T06:41:53;142691.63;;;18.11;100.00
788;BME280;16074;42.708;23.312;2023-05-17T06:44:21;142712.22;;;18.19;100.00
788;BME280;16074;42.708;23.312;2023-05-17T06:46:49;142711.03;;;18.19;100.00
788;BME280;16074;42.708;23.312;2023-05-17T06:49:17;142719.50;;;18.22;100.00
788;BME280;16074;42.708;23.312;2023-05-17T06:51:46;142757.19;;;18.38;100.00
788;BME280;16074;42.708;23.312;2023-05-17T06:54:15;142799.63;;;18.55;100.00
788;BME280;16074;42.708;23.312;2023-05-17T06:56:50;142791.09;;;18.52;100.00
788;BME280;16074;42.708;23.312;2023-05-17T06:59:21;142788.66;;;18.51;100.00
788;BME280;16074;42.708;23.312;2023-05-17T07:01:49;142797.19;;;18.54;100.00
788;BME280;16074;42.708;23.312;2023-05-17T07:04:17;142806.91;;;18.58;100.00
788;BME280;16074;42.708;23.312;2023-05-17T07:06:46;142788.66;;;18.51;100.00
788;BME280;16074;42.708;23.312;2023-05-17T07:09:15;142787.47;;;18.50;100.00
788;BME280;16074;42.708;23.312;2023-05-17T07:11:43;142797.19;;;18.54;100.00
788;BME280;16074;42.708;23.312;2023-05-17T07:14:11;142843.25;;;18.73;100.00
788;BME280;16074;42.708;23.312;2023-05-17T07:16:41;142845.69;;;18.74;100.00
788;BME280;16074;42.708;23.312;2023-05-17T07:19:10;142907.53;;;19.00;100.00
788;BME280;16074;42.708;23.312;2023-05-17T07:21:38;142941.59;;;19.14;100.00
788;BME280;16074;42.708;23.312;2023-05-17T07:24:07;142990.13;;;19.33;100.00
788;BME280;16074;42.708;23.312;2023-05-17T07:26:36;143025.31;;;19.48;98.44
788;BME280;16074;42.708;23.312;2023-05-17T07:29:04;143060.53;;;19.62;98.94
788;BME280;16074;42.708;23.312;2023-05-17T07:31:33;143061.75;;;19.63;96.99
788;BME280;16074;42.708;23.312;2023-05-17T07:34:03;143072.66;;;19.67;97.02
788;BME280;16074;42.708;23.312;2023-05-17T07:36:32;143075.09;;;19.68;95.24
788;BME280;16074;42.708;23.312;2023-05-17T07:39:00;143053.22;;;19.59;95.28
788;BME280;16074;42.708;23.312;2023-05-17T07:41:31;143050.81;;;19.58;96.24
788;BME280;16074;42.708;23.312;2023-05-17T07:44:00;143039.91;;;19.54;99.40
788;BME280;16074;42.708;23.312;2023-05-17T07:46:28;143081.19;;;19.71;99.44
788;BME280;16074;42.708;23.312;2023-05-17T07:48:56;143110.34;;;19.83;99.58
788;BME280;16074;42.708;23.312;2023-05-17T07:51:26;143157.72;;;20.02;97.78
788;BME280;16074;42.708;23.312;2023-05-17T07:53:55;143202.66;;;20.21;93.63
788;BME280;16074;42.708;23.312;2023-05-17T07:56:23;143223.28;;;20.29;92.44
788;BME280;16074;42.708;23.312;2023-05-17T07:58:51;143245.16;;;20.38;91.42
788;BME280;16074;42.708;23.312;2023-05-17T08:01:20;143296.22;;;20.59;88.31
788;BME280;16074;42.708;23.312;2023-05-17T08:03:49;143284.06;;;20.54;87.28
788;BME280;16074;42.708;23.312;2023-05-17T08:06:18;143303.50;;;20.62;88.11
788;BME280;16074;42.708;23.312;2023-05-17T08:08:48;143356.97;;;20.84;85.97
788;BME280;16074;42.708;23.312;2023-05-17T08:11:16;143399.50;;;21.01;83.95
788;BME280;16074;42.708;23.312;2023-05-17T08:13:45;143445.72;;;21.20;86.04
788;BME280;16074;42.708;23.312;2023-05-17T08:16:13;143494.34;;;21.40;83.60
788;BME280;16074;42.708;23.312;2023-05-17T08:18:41;143529.59;;;21.55;80.16
788;BME280;16074;42.708;23.312;2023-05-17T08:21:10;143573.44;;;21.73;78.85
788;BME280;16074;42.708;23.312;2023-05-17T08:23:39;143522.31;;;21.52;77.15
788;BME280;16074;42.708;23.312;2023-05-17T08:26:09;143574.63;;;21.73;76.82
788;BME280;16074;42.708;23.312;2023-05-17T08:28:38;143600.16;;;21.83;77.38
788;BME280;16074;42.708;23.312;2023-05-17T08:31:07;143585.63;;;21.77;75.68
788;BME280;16074;42.708;23.312;2023-05-17T08:33:35;143623.31;;;21.93;75.11
788;BME280;16074;42.708;23.312;2023-05-17T08:36:04;143643.97;;;22.01;73.93
788;BME280;16074;42.708;23.312;2023-05-17T08:38:34;143686.53;;;22.19;72.65
788;BME280;16074;42.708;23.312;2023-05-17T08:41:03;143709.69;;;22.28;72.59
788;BME280;16074;42.708;23.312;2023-05-17T08:43:33;143732.84;;;22.38;72.36
788;BME280;16074;42.708;23.312;2023-05-17T08:46:01;143697.53;;;22.23;71.03
788;BME280;16074;42.708;23.312;2023-05-17T08:48:30;143641.53;;;22.00;71.03
788;BME280;16074;42.708;23.312;2023-05-17T08:51:02;143583.19;;;21.76;74.75
788;BME280;16074;42.708;23.312;2023-05-17T08:53:31;143645.22;;;22.02;73.53
788;BME280;16074;42.708;23.312;2023-05-17T08:56:01;143619.63;;;21.91;73.92
788;BME280;16074;42.708;23.312;2023-05-17T08:58:35;143618.44;;;21.91;71.35
788;BME280;16074;42.708;23.312;2023-05-17T09:01:22;143626.94;;;21.94;72.88
788;BME280;16074;42.708;23.312;2023-05-17T09:03:53;143646.41;;;22.02;72.96
788;BME280;16074;42.708;23.312;2023-05-17T09:06:22;143586.81;;;21.78;73.86
788;BME280;16074;42.708;23.312;2023-05-17T09:08:51;143577.06;;;21.74;72.73
788;BME280;16074;42.708;23.312;2023-05-17T09:11:25;143592.91;;;21.80;73.62
788;BME280;16074;42.708;23.312;2023-05-17T09:13:58;143563.72;;;21.69;72.68
788;BME280;16074;42.708;23.312;2023-05-17T09:16:27;143585.63;;;21.77;74.80
788;BME280;16074;42.708;23.312;2023-05-17T09:18:57;143550.31;;;21.63;75.42
788;BME280;16074;42.708;23.312;2023-05-17T09:21:27;143564.91;;;21.69;75.75
788;BME280;16074;42.708;23.312;2023-05-17T09:23:55;143583.19;;;21.76;75.32
788;BME280;16074;42.708;23.312;2023-05-17T09:26:37;143597.72;;;21.82;75.71
788;BME280;16074;42.708;23.312;2023-05-17T09:29:11;143626.94;;;21.94;75.40
788;BME280;16074;42.708;23.312;2023-05-17T09:31:41;143625.75;;;21.94;73.91
788;BME280;16074;42.708;23.312;2023-05-17T09:34:10;143647.66;;;22.03;74.59
788;BME280;16074;42.708;23.312;2023-05-17T09:36:41;143661.00;;;22.08;71.56
788;BME280;16074;42.708;23.312;2023-05-17T09:39:10;143577.06;;;21.74;73.15
788;BME280;16074;42.708;23.312;2023-05-17T09:41:41;143584.38;;;21.77;73.76
788;BME280;16074;42.708;23.312;2023-05-17T09:44:13;143579.50;;;21.75;73.58
788;BME280;16074;42.708;23.312;2023-05-17T09:46:43;143577.06;;;21.74;74.70
788;BME280;16074;42.708;23.312;2023-05-17T09:49:13;143609.91;;;21.87;72.39
788;BME280;16074;42.708;23.312;2023-05-17T09:51:44;143529.59;;;21.55;74.00
788;BME280;16074;42.708;23.312;2023-05-17T09:54:13;143588.06;;;21.78;74.14
788;BME280;16074;42.708;23.312;2023-05-17T09:56:43;143608.72;;;21.87;72.27
788;BME280;16074;42.708;23.312;2023-05-17T09:59:14;143578.31;;;21.74;73.28
788;BME280;16074;42.708;23.312;2023-05-17T10:01:44;143572.22;;;21.72;74.14
788;BME280;16074;42.708;23.312;2023-05-17T10:04:12;143523.56;;;21.52;72.40
788;BME280;16074;42.708;23.312;2023-05-17T10:06:48;143549.13;;;21.63;74.66
788;BME280;16074;42.708;23.312;2023-05-17T10:09:21;143530.81;;;21.55;72.91
788;BME280;16074;42.708;23.312;2023-05-17T10:11:51;143532.03;;;21.56;74.69
788;BME280;16074;42.708;23.312;2023-05-17T10:14:27;143535.66;;;21.57;74.98
788;BME280;16074;42.708;23.312;2023-05-17T10:16:58;143550.31;;;21.63;74.67
788;BME280;16074;42.708;23.312;2023-05-17T10:19:28;143541.81;;;21.60;74.20
788;BME280;16074;42.708;23.312;2023-05-17T10:21:58;143523.56;;;21.52;73.18
788;BME280;16074;42.708;23.312;2023-05-17T10:24:44;143448.16;;;21.21;72.32
788;BME280;16074;42.708;23.312;2023-05-17T10:27:15;143383.72;;;20.95;74.61
788;BME280;16074;42.708;23.312;2023-05-17T10:29:45;143366.72;;;20.88;72.97
788;BME280;16074;42.708;23.312;2023-05-17T10:32:18;143326.56;;;20.71;76.80
788;BME280;16074;42.708;23.312;2023-05-17T10:34:49;143290.09;;;20.56;78.19
788;BME280;16074;42.708;23.312;2023-05-17T10:37:32;143270.66;;;20.48;77.62
788;BME280;16074;42.708;23.312;2023-05-17T10:40:01;143248.84;;;20.40;77.42
788;BME280;16074;42.708;23.312;2023-05-17T10:42:30;143216.00;;;20.26;79.27
788;BME280;16074;42.708;23.312;2023-05-17T10:45:01;143243.97;;;20.38;79.69
788;BME280;16074;42.708;23.312;2023-05-17T10:47:33;143267.03;;;20.47;76.81
788;BME280;16074;42.708;23.312;2023-05-17T10:50:09;143285.25;;;20.54;77.68
788;BME280;16074;42.708;23.312;2023-05-17T10:52:45;143294.97;;;20.58;78.66
788;BME280;16074;42.708;23.312;2023-05-17T10:55:17;143280.38;;;20.52;78.48
788;BME280;16074;42.708;23.312;2023-05-17T10:58:17;143247.59;;;20.39;80.12
788;BME280;16074;42.708;23.312;2023-05-17T11:00:48;143223.28;;;20.29;80.96
788;BME280;16074;42.708;23.312;2023-05-17T11:03:20;143229.38;;;20.32;81.26
788;BME280;16074;42.708;23.312;2023-05-17T11:06:12;143256.06;;;20.42;80.11
788;BME280;16074;42.708;23.312;2023-05-17T11:09:08;143259.75;;;20.44;77.69
788;BME280;16074;42.708;23.312;2023-05-17T11:12:02;143274.34;;;20.50;77.31
788;BME280;16074;42.708;23.312;2023-05-17T11:14:50;143307.13;;;20.63;78.03
788;BME280;16074;42.708;23.312;2023-05-17T11:17:26;143325.31;;;20.71;78.73
788;BME280;16074;42.708;23.312;2023-05-17T11:19:55;143288.91;;;20.56;79.73
788;BME280;16074;42.708;23.312;2023-05-17T11:22:24;143325.31;;;20.71;80.87
788;BME280;16074;42.708;23.312;2023-05-17T11:24:56;143294.97;;;20.58;80.13
788;BME280;16074;42.708;23.312;2023-05-17T11:27:24;143302.25;;;20.61;81.49
788;BME280;16074;42.708;23.312;2023-05-17T11:29:55;143298.63;;;20.60;81.70
788;BME280;16074;42.708;23.312;2023-05-17T11:32:30;143282.81;;;20.53;81.22
788;BME280;16074;42.708;23.312;2023-05-17T11:34:59;143292.53;;;20.57;82.13
788;BME280;16074;42.708;23.312;2023-05-17T11:37:29;143285.25;;;20.54;83.03
788;BME280;16074;42.708;23.312;2023-05-17T11:40:02;143348.50;;;20.80;83.88
788;BME280;16074;42.708;23.312;2023-05-17T11:42:32;143341.16;;;20.77;82.38
788;BME280;16074;42.708;23.312;2023-05-17T11:45:01;143350.94;;;20.81;81.71
788;BME280;16074;42.708;23.312;2023-05-17T11:47:31;143371.56;;;20.90;78.58
788;BME280;16074;42.708;23.312;2023-05-17T11:50:02;143335.06;;;20.75;78.69
788;BME280;16074;42.708;23.312;2023-05-17T11:52:31;143308.38;;;20.64;79.28
788;BME280;16074;42.708;23.312;2023-05-17T11:55:00;143260.94;;;20.44;79.92
788;BME280;16074;42.708;23.312;2023-05-17T11:57:29;143264.59;;;20.46;78.98
788;BME280;16074;42.708;23.312;2023-05-17T11:59:58;143235.44;;;20.34;80.32
788;BME280;16074;42.708;23.312;2023-05-17T12:02:27;143234.25;;;20.34;80.05
788;BME280;16074;42.708;23.312;2023-05-17T12:04:58;143190.50;;;20.16;81.06
788;BME280;16074;42.708;23.312;2023-05-17T12:07:26;143152.88;;;20.00;80.59
788;BME280;16074;42.708;23.312;2023-05-17T12:09:55;143202.66;;;20.21;81.32
788;BME280;16074;42.708;23.312;2023-05-17T12:12:24;143228.16;;;20.31;79.90
788;BME280;16074;42.708;23.312;2023-05-17T12:14:53;143197.81;;;20.19;80.75
788;BME280;16074;42.708;23.312;2023-05-17T12:17:26;143178.34;;;20.11;82.38
788;BME280;16074;42.708;23.312;2023-05-17T12:20:07;143192.94;;;20.17;81.86
788;BME280;16074;42.708;23.312;2023-05-17T12:22:50;143209.94;;;20.24;81.56
788;BME280;16074;42.708;23.312;2023-05-17T12:25:19;143265.81;;;20.46;81.13
788;BME280;16074;42.708;23.312;2023-05-17T12:27:49;143299.84;;;20.60;78.25
788;BME280;16074;42.708;23.312;2023-05-17T12:30:18;143329.00;;;20.72;77.16
788;BME280;16074;42.708;23.312;2023-05-17T12:32:46;143337.47;;;20.76;75.42
788;BME280;16074;42.708;23.312;2023-05-17T12:35:17;143313.22;;;20.66;75.79
788;BME280;16074;42.708;23.312;2023-05-17T12:37:45;143285.25;;;20.54;77.48
788;BME280;16074;42.708;23.312;2023-05-17T12:40:14;143269.47;;;20.48;78.50
788;BME280;16074;42.708;23.312;2023-05-17T12:42:42;143264.59;;;20.46;77.87
788;BME280;16074;42.708;23.312;2023-05-17T12:45:11;143275.53;;;20.50;78.88
788;BME280;16074;42.708;23.312;2023-05-17T12:47:39;143251.22;;;20.41;81.58
788;BME280;16074;42.708;23.312;2023-05-17T12:50:09;143270.66;;;20.48;80.67
788;BME280;16074;42.708;23.312;2023-05-17T12:52:39;143237.88;;;20.35;81.14
788;BME280;16074;42.708;23.312;2023-05-17T12:55:12;143202.66;;;20.21;82.38
788;BME280;16074;42.708;23.312;2023-05-17T12:57:48;143177.16;;;20.10;83.33
788;BME280;16074;42.708;23.312;2023-05-17T13:00:17;143208.72;;;20.23;82.67
788;BME280;16074;42.708;23.312;2023-05-17T13:02:45;143251.22;;;20.41;81.26
788;BME280;16074;42.708;23.312;2023-05-17T13:05:15;143276.75;;;20.51;80.63
788;BME280;16074;42.708;23.312;2023-05-17T13:07:45;143321.72;;;20.69;80.25
788;BME280;16074;42.708;23.312;2023-05-17T13:10:22;143356.97;;;20.84;76.85
788;BME280;16074;42.708;23.312;2023-05-17T13:12:55;143338.72;;;20.76;76.78